(°C)
(°C)
-1°
-1°
-2°
-2°
SSE
SE
SE
SE
SE
SE
SE
(km/h)
8-12
7-13
8-13
8-14
8-14
8-15
8-15
(mm)
0
0
0
0
0
0
0
(%)
0
0
0
0
0
0
0

Elevación del sol

/ -22.9°
sun-icon
UV 2
07:05
17:44
Gibosa creciente (132°)
16:57
01:25

METAR a 53.5°N 50.15°E (UWWW)

Hora Condiciones Temperatura/
Punto de condensación
Viento Visibilidad Tiempo Nubes Presión Cambiar Bruto
VFR 6°C / -3°C 210º 6kt >10km - Clouds and Visibility OK 1021 No Significant change UWWW 161530Z 21003MPS CAVOK 06/M03 Q1021 R15/CLRD60 NOSIG RMK QFE754/1006
VFR 7°C / -3°C 220º 6kt >10km - Clouds and Visibility OK 1022 No Significant change UWWW 161500Z 22003MPS CAVOK 07/M03 Q1022 R15/CLRD60 NOSIG RMK QFE754/1006
VFR 5°C / -3°C 220º 4kt >10km - Clouds and Visibility OK 1022 No Significant change UWWW 161430Z 22002MPS CAVOK 05/M03 Q1022 R15/CLRD60 NOSIG RMK QFE754/1006
VFR 8°C / -2°C 210º 6kt >10km - Clouds and Visibility OK 1022 No Significant change UWWW 161400Z 21003MPS CAVOK 08/M02 Q1022 R15/CLRD60 NOSIG RMK QFE754/1006
VFR 8°C / -2°C 220º 6kt >10km - Clouds and Visibility OK 1022 No Significant change UWWW 161330Z 22003MPS CAVOK 08/M02 Q1022 R15/CLRD60 NOSIG RMK QFE755/1006
VFR 10°C / -2°C 230º variable 210º to 270º 8kt >10km - Clouds and Visibility OK 1022 No Significant change UWWW 161300Z 23004MPS 210V270 CAVOK 10/M02 Q1022 R15/CLRD60 NOSIG RMK QFE755/1006
VFR 11°C / -2°C 240º 10kt >10km - Clouds and Visibility OK 1022 No Significant change UWWW 161230Z 24005MPS CAVOK 11/M02 Q1022 R15/CLRD60 NOSIG RMK QFE755/1007
VFR 12°C / -1°C 250º 8kt >10km - Clouds and Visibility OK 1022 No Significant change UWWW 161200Z 25004MPS CAVOK 12/M01 Q1022 R15/CLRD60 NOSIG RMK QFE755/1007
VFR 12°C / -1°C 260º 8kt >10km - Few Clouds 3300ft 1022 No Significant change UWWW 161130Z 26004MPS 9999 FEW033 12/M01 Q1022 R15/CLRD60 NOSIG RMK QFE755/1007
VFR 12°C / -1°C 240º variable 200º to 290º 10kt >10km - Few Clouds 3300ft 1022 No Significant change UWWW 161100Z 24005MPS 200V290 9999 FEW033 12/M01 Q1022 R15/CLRD60 NOSIG RMK QFE755/1007
VFR 11°C / -2°C 270º variable 220º to 300º 8kt >10km - Few Clouds 3300ft 1023 No Significant change UWWW 161030Z 27004MPS 220V300 9999 FEW033 11/M02 Q1023 R15/CLRD60 NOSIG RMK QFE755/1007
VFR 11°C / -2°C 260º variable 220º to 310º 8kt >10km - Few Clouds 3300ft 1023 No Significant change UWWW 161000Z 26004MPS 220V310 9999 FEW033 11/M02 Q1023 R15/CLRD60 NOSIG RMK QFE755/1007
VFR 12°C / -1°C 240º 14kt >10km - Few Clouds 3300ft 1023 No Significant change UWWW 160930Z 24007MPS 9999 FEW033 12/M01 Q1023 R15/CLRD60 NOSIG RMK QFE755/1007
VFR 11°C / -2°C 250º variable 220º to 280º 12kt >10km - Few Clouds 3300ft 1023 No Significant change UWWW 160900Z 25006MPS 220V280 9999 FEW033 11/M02 Q1023 R15/CLRD60 NOSIG RMK QFE756/1008
VFR 11°C / -1°C 250º variable 210º to 300º 12kt >10km - Few Clouds 3300ft 1023 No Significant change UWWW 160830Z 25006MPS 210V300 9999 FEW033 11/M01 Q1023 R15/CLRD60 NOSIG RMK QFE756/1008
VFR 11°C / -1°C 260º variable 230º to 290º 14kt >10km - Clouds and Visibility OK 1023 No Significant change UWWW 160800Z 26007MPS 230V290 CAVOK 11/M01 Q1023 R15/CLRD60 NOSIG RMK QFE756/1008
VFR 10°C / 0°C 240º 10kt >10km - Clouds and Visibility OK 1023 No Significant change UWWW 160730Z 24005MPS CAVOK 10/00 Q1023 R15/CLRD60 NOSIG RMK QFE756/1008
VFR 10°C / 0°C 240º variable 220º to 280º 8kt >10km - Clouds and Visibility OK 1023 No Significant change UWWW 160700Z 24004MPS 220V280 CAVOK 10/00 Q1023 R15/CLRD60 NOSIG RMK QFE756/1008
VFR 9°C / 1°C 220º 8kt >10km - Clouds and Visibility OK 1023 No Significant change UWWW 160630Z 22004MPS CAVOK 09/01 Q1023 R15/CLRD60 NOSIG RMK QFE756/1008
VFR 7°C / 1°C 220º 6kt >10km - Clouds and Visibility OK 1024 No Significant change UWWW 160600Z 22003MPS CAVOK 07/01 Q1024 R15/CLRD60 NOSIG RMK QFE756/1008
VFR 6°C / 2°C 230º 6kt >10km - Clouds and Visibility OK 1024 No Significant change UWWW 160530Z 23003MPS CAVOK 06/02 Q1024 R15/CLRD60 NOSIG RMK QFE756/1008
VFR 5°C / 1°C 240º 4kt >10km - Clouds and Visibility OK 1024 No Significant change UWWW 160500Z 24002MPS CAVOK 05/01 Q1024 R15/CLRD60 NOSIG RMK QFE756/1008
VFR 3°C / 0°C 260º 2kt >10km - Clouds and Visibility OK 1024 No Significant change UWWW 160430Z 26001MPS CAVOK 03/00 Q1024 R15/CLRD60 NOSIG RMK QFE756/1008
VFR 1°C / -1°C 270º 4kt >10km - Clouds and Visibility OK 1023 No Significant change UWWW 160400Z 27002MPS CAVOK 01/M01 Q1023 R15/CLRD60 NOSIG RMK QFE756/1008

VFR

6°C / -3°C

[Más]
Viento 210º 6kt
Visibilidad >10km
Tiempo -
Nubes Clouds and Visibility OK
Presión 1021
Cambiar No Significant change
Bruto UWWW 161530Z 21003MPS CAVOK 06/M03 Q1021 R15/CLRD60 NOSIG RMK QFE754/1006

VFR

7°C / -3°C

[Más]
Viento 220º 6kt
Visibilidad >10km
Tiempo -
Nubes Clouds and Visibility OK
Presión 1022
Cambiar No Significant change
Bruto UWWW 161500Z 22003MPS CAVOK 07/M03 Q1022 R15/CLRD60 NOSIG RMK QFE754/1006

VFR

5°C / -3°C

[Más]
Viento 220º 4kt
Visibilidad >10km
Tiempo -
Nubes Clouds and Visibility OK
Presión 1022
Cambiar No Significant change
Bruto UWWW 161430Z 22002MPS CAVOK 05/M03 Q1022 R15/CLRD60 NOSIG RMK QFE754/1006

VFR

8°C / -2°C

[Más]
Viento 210º 6kt
Visibilidad >10km
Tiempo -
Nubes Clouds and Visibility OK
Presión 1022
Cambiar No Significant change
Bruto UWWW 161400Z 21003MPS CAVOK 08/M02 Q1022 R15/CLRD60 NOSIG RMK QFE754/1006

VFR

8°C / -2°C

[Más]
Viento 220º 6kt
Visibilidad >10km
Tiempo -
Nubes Clouds and Visibility OK
Presión 1022
Cambiar No Significant change
Bruto UWWW 161330Z 22003MPS CAVOK 08/M02 Q1022 R15/CLRD60 NOSIG RMK QFE755/1006

VFR

10°C / -2°C

[Más]
Viento 230º variable 210º to 270º 8kt
Visibilidad >10km
Tiempo -
Nubes Clouds and Visibility OK
Presión 1022
Cambiar No Significant change
Bruto UWWW 161300Z 23004MPS 210V270 CAVOK 10/M02 Q1022 R15/CLRD60 NOSIG RMK QFE755/1006

VFR

11°C / -2°C

[Más]
Viento 240º 10kt
Visibilidad >10km
Tiempo -
Nubes Clouds and Visibility OK
Presión 1022
Cambiar No Significant change
Bruto UWWW 161230Z 24005MPS CAVOK 11/M02 Q1022 R15/CLRD60 NOSIG RMK QFE755/1007

VFR

12°C / -1°C

[Más]
Viento 250º 8kt
Visibilidad >10km
Tiempo -
Nubes Clouds and Visibility OK
Presión 1022
Cambiar No Significant change
Bruto UWWW 161200Z 25004MPS CAVOK 12/M01 Q1022 R15/CLRD60 NOSIG RMK QFE755/1007

VFR

12°C / -1°C

[Más]
Viento 260º 8kt
Visibilidad >10km
Tiempo -
Nubes Few Clouds 3300ft
Presión 1022
Cambiar No Significant change
Bruto UWWW 161130Z 26004MPS 9999 FEW033 12/M01 Q1022 R15/CLRD60 NOSIG RMK QFE755/1007

VFR

12°C / -1°C

[Más]
Viento 240º variable 200º to 290º 10kt
Visibilidad >10km
Tiempo -
Nubes Few Clouds 3300ft
Presión 1022
Cambiar No Significant change
Bruto UWWW 161100Z 24005MPS 200V290 9999 FEW033 12/M01 Q1022 R15/CLRD60 NOSIG RMK QFE755/1007

VFR

11°C / -2°C

[Más]
Viento 270º variable 220º to 300º 8kt
Visibilidad >10km
Tiempo -
Nubes Few Clouds 3300ft
Presión 1023
Cambiar No Significant change
Bruto UWWW 161030Z 27004MPS 220V300 9999 FEW033 11/M02 Q1023 R15/CLRD60 NOSIG RMK QFE755/1007

VFR

11°C / -2°C

[Más]
Viento 260º variable 220º to 310º 8kt
Visibilidad >10km
Tiempo -
Nubes Few Clouds 3300ft
Presión 1023
Cambiar No Significant change
Bruto UWWW 161000Z 26004MPS 220V310 9999 FEW033 11/M02 Q1023 R15/CLRD60 NOSIG RMK QFE755/1007

VFR

12°C / -1°C

[Más]
Viento 240º 14kt
Visibilidad >10km
Tiempo -
Nubes Few Clouds 3300ft
Presión 1023
Cambiar No Significant change
Bruto UWWW 160930Z 24007MPS 9999 FEW033 12/M01 Q1023 R15/CLRD60 NOSIG RMK QFE755/1007

VFR

11°C / -2°C

[Más]
Viento 250º variable 220º to 280º 12kt
Visibilidad >10km
Tiempo -
Nubes Few Clouds 3300ft
Presión 1023
Cambiar No Significant change
Bruto UWWW 160900Z 25006MPS 220V280 9999 FEW033 11/M02 Q1023 R15/CLRD60 NOSIG RMK QFE756/1008

VFR

11°C / -1°C

[Más]
Viento 250º variable 210º to 300º 12kt
Visibilidad >10km
Tiempo -
Nubes Few Clouds 3300ft
Presión 1023
Cambiar No Significant change
Bruto UWWW 160830Z 25006MPS 210V300 9999 FEW033 11/M01 Q1023 R15/CLRD60 NOSIG RMK QFE756/1008

VFR

11°C / -1°C

[Más]
Viento 260º variable 230º to 290º 14kt
Visibilidad >10km
Tiempo -
Nubes Clouds and Visibility OK
Presión 1023
Cambiar No Significant change
Bruto UWWW 160800Z 26007MPS 230V290 CAVOK 11/M01 Q1023 R15/CLRD60 NOSIG RMK QFE756/1008

VFR

10°C / 0°C

[Más]
Viento 240º 10kt
Visibilidad >10km
Tiempo -
Nubes Clouds and Visibility OK
Presión 1023
Cambiar No Significant change
Bruto UWWW 160730Z 24005MPS CAVOK 10/00 Q1023 R15/CLRD60 NOSIG RMK QFE756/1008

VFR

10°C / 0°C

[Más]
Viento 240º variable 220º to 280º 8kt
Visibilidad >10km
Tiempo -
Nubes Clouds and Visibility OK
Presión 1023
Cambiar No Significant change
Bruto UWWW 160700Z 24004MPS 220V280 CAVOK 10/00 Q1023 R15/CLRD60 NOSIG RMK QFE756/1008

VFR

9°C / 1°C

[Más]
Viento 220º 8kt
Visibilidad >10km
Tiempo -
Nubes Clouds and Visibility OK
Presión 1023
Cambiar No Significant change
Bruto UWWW 160630Z 22004MPS CAVOK 09/01 Q1023 R15/CLRD60 NOSIG RMK QFE756/1008

VFR

7°C / 1°C

[Más]
Viento 220º 6kt
Visibilidad >10km
Tiempo -
Nubes Clouds and Visibility OK
Presión 1024
Cambiar No Significant change
Bruto UWWW 160600Z 22003MPS CAVOK 07/01 Q1024 R15/CLRD60 NOSIG RMK QFE756/1008

VFR

6°C / 2°C

[Más]
Viento 230º 6kt
Visibilidad >10km
Tiempo -
Nubes Clouds and Visibility OK
Presión 1024
Cambiar No Significant change
Bruto UWWW 160530Z 23003MPS CAVOK 06/02 Q1024 R15/CLRD60 NOSIG RMK QFE756/1008

VFR

5°C / 1°C

[Más]
Viento 240º 4kt
Visibilidad >10km
Tiempo -
Nubes Clouds and Visibility OK
Presión 1024
Cambiar No Significant change
Bruto UWWW 160500Z 24002MPS CAVOK 05/01 Q1024 R15/CLRD60 NOSIG RMK QFE756/1008

VFR

3°C / 0°C

[Más]
Viento 260º 2kt
Visibilidad >10km
Tiempo -
Nubes Clouds and Visibility OK
Presión 1024
Cambiar No Significant change
Bruto UWWW 160430Z 26001MPS CAVOK 03/00 Q1024 R15/CLRD60 NOSIG RMK QFE756/1008

VFR

1°C / -1°C

[Más]
Viento 270º 4kt
Visibilidad >10km
Tiempo -
Nubes Clouds and Visibility OK
Presión 1023
Cambiar No Significant change
Bruto UWWW 160400Z 27002MPS CAVOK 01/M01 Q1023 R15/CLRD60 NOSIG RMK QFE756/1008

TAF a 53.5°N 50.15°E (UWWW)

From till


Maximum Temperature 10ºC on . Minimum Temperature 2ºC on .
From till Wind 190º 6kt. Gust 17kt. Visibility 10km or more. Scattered Clouds 2000ft.
Temporarly from till Light Showers Rain . Broken Clouds 1600ft.

Bruto: TAF UWWW 161351Z 1615/1715 19003G09MPS 9999 SCT020 TX10/1711Z TN02/1702Z TEMPO 1623/1715 -SHRA BKN016CB

Imágenes actuales de satélite y lluvia para 53.5°N 50.15°E

El marcador de lugar se coloca en 53.5°N 50.15°E. [Más]

La imagen de satélite en tiempo real se aprovecha de la combinación de bandas de la luz visible y de la luz infrarrojo. Como se puede detectar cambios de temperaturas atreves de la banda infrarrojo, la imagen no está escura de noche. No obstante, la niebla y las nubes bajas son apenas visibles en las imágenes infrarrojo como las diferencias de temperaturas entre el suelo y la niebla son muy pequeñas. Por eso son casi invisibles durante la noche. Las imágenes de satélite del Meteosat (Europa) son actualizados en tiempo real cada 5 minutos. Las imágenes del GOES-16/GOES-17 (América del Norte y América del Sur) y Himawari (Asia) son actualizados cada 10 minutos.

Copyright 2021 EUMETSAT / meteoblue. / Copyright 2021 meteoblue

Radar y precipitación nowcast para 53.5°N 50.15°E

llovizna
Leve
Moderado
Fuerte
Muy fuerte
Granizo

El marcador de lugar se coloca en 53.5°N 50.15°E. Esta animación muestra lo radar de precipitaciones hasta la última hora, así como la 1h previsión. Las lloviznas o las nevadas ligeras pueden ser invisibles para el radar. La intensidad de la precipitación está codificada por colores, que van del azul claro al naranja.